Weather observations for the past three days for
Burnet, Burnet Municipal Craddock Field
Imperial (Metric)
Date Time (cdt) Wind (mph) Vis. (mi.) Weather Sky Cond. Temperature (ºF) Relative Humidity Wind Chill (°F) Heat Index (°F) Pressure Precipitation (in)
Air Dwpt 6 hour altimeter (in) sea level (mb) 1 hr 3 hr 6 hr
Max. Min.
31 01:53 S 7 10.00 Fair CLR 81 69.1 67% 84 30.04 1015.0
31 00:53 Vrbl 6 10.00 Fair CLR 82.9 69.1 93.9 82.9 63% 87 30.03 1014.9
30 23:53 S 9 10.00 Fair CLR 84 68 59% 87 30.03 1014.6
30 22:53 SE 7 10.00 Fair CLR 84.9 66 53% 87 30.01 1014.1
30 21:53 Calm 10.00 Fair CLR 84 64 51% 85 29.99 1013.5
30 20:53 Calm 10.00 Fair CLR 86 63 46% 87 29.97 1012.8
30 19:53 SE 5 10.00 Fair CLR 90 61 38% 90 29.96 1012.4
30 18:53 SE 6 10.00 Fair CLR 93.9 61 97 90 33% 94 29.96 1012.4
30 17:53 SE 7 10.00 Fair CLR 93.9 63 36% 95 29.95 1012.2
30 16:53 SE 3 10.00 Partly Cloudy SCT090 96.1 62.1 32% 97 29.96 1012.4
30 15:53 SE 6 10.00 A Few Clouds FEW065 95 64 36% 97 29.98 1013.1
30 14:53 SE 9 10.00 Fair CLR 93.9 64 37% 96 30.01 1013.9
30 13:53 SE 8 10.00 A Few Clouds FEW060 93 64.9 40% 95 30.03 1014.9
30 11:53 SE 8 10.00 Fair CLR 88 66.9 50% 91 30.09 1016.7
30 10:53 Vrbl 5 10.00 Fair CLR 84.9 69.1 59% 89 30.09 1016.9
30 09:53 S 8 10.00 Fair CLR 82 69.1 65% 85 30.08 1016.7
30 08:53 S 7 10.00 Fair CLR 77 70 79% 79 30.08 1016.6
30 07:53 S 5 10.00 Fair CLR 75 69.1 82% 75 30.06 1016.1
30 06:53 SW 3 10.00 Fair CLR 73.9 69.1 82.9 73.9 85% 30.05 1015.6
30 05:53 S 3 10.00 Fair CLR 75 69.1 82% 75 30.04 1015.2
30 04:53 S 5 10.00 Fair CLR 75.9 68 77% 77 30.04 1015.0
30 03:53 S 3 10.00 Fair CLR 78.1 68 71% 80 30.04 1015.1
30 02:53 S 3 10.00 Fair CLR 79 68 69% 81 30.04 1015.1
30 01:53 S 6 10.00 Fair CLR 81 69.1 67% 84 30.05 1015.4
30 00:53 S 7 10.00 Fair CLR 82.9 69.1 93.9 82.9 63% 87 30.05 1015.4
29 23:53 SE 5 10.00 Fair CLR 84 66.9 57% 87 30.04 1015.3
29 22:53 SE 7 10.00 Fair CLR 84.9 64 50% 86 30.04 1015.0
29 21:53 Calm 10.00 Fair CLR 84 64 51% 85 30.03 1015.0
29 20:53 E 3 10.00 Fair CLR 86 64 48% 87 30 1014.1
29 19:53 SE 5 10.00 Fair CLR 90 61 38% 90 30 1013.8
29 18:53 SE 7 10.00 Fair CLR 93.9 61 97 91 33% 94 29.99 1013.6
29 17:53 SE 8 10.00 A Few Clouds FEW075 95 61 32% 95 29.99 1013.6
29 16:53 Vrbl 6 10.00 A Few Clouds FEW075 95 61 32% 95 30 1014.0
29 15:53 S 9 10.00 Fair CLR 95 63 35% 96 30.02 1014.6
29 14:53 SE 9 G 18 10.00 A Few Clouds FEW065 96.1 63 34% 98 30.05 1015.6
29 13:53 S 7 10.00 Fair CLR 93 64.9 40% 95 30.08 1016.5
29 12:53 Vrbl 6 10.00 Fair CLR 91 64.9 91.9 71.1 42% 93 30.1 1017.3
29 11:53 Calm 10.00 Fair CLR 89.1 66 47% 92 30.12 1018.0
29 10:53 Vrbl 3 10.00 Fair CLR 84.9 68 57% 88 30.12 1018.1
29 09:53 S 5 10.00 Fair CLR 81 71.1 72% 85 30.11 1017.9
29 08:53 SW 3 10.00 Fair CLR 75.9 70 82% 77 30.11 1018.0
29 07:53 S 5 10.00 Fair CLR 72 69.1 91% 30.11 1017.8
29 06:53 Calm 10.00 Fair CLR 72 69.1 73.9 71.1 91% 30.09 1017.0
29 05:53 Calm 10.00 Fair CLR 71.1 69.1 94% 30.09 1017.2
29 04:53 Calm 10.00 Fair CLR 73 69.1 87% 30.09 1017.1
29 03:53 Calm 10.00 Fair CLR 73 69.1 87% 30.09 1017.0
29 02:53 Calm 10.00 Fair CLR 73 69.1 87% 30.09 1017.1
29 01:53 Calm 10.00 Fair CLR 73 69.1 87% 30.09 1016.8
29 00:53 Calm 10.00 Fair CLR 73 70 82.9 73 90% 30.07 1016.3
28 23:53 Calm 10.00 Fair CLR 75 69.1 82% 75 30.08 1016.5
28 22:53 S 5 10.00 Fair CLR 75 68 79% 76 30.09 1017.0
28 21:53 SE 3 10.00 Fair CLR 75.9 66.9 74% 77 30.06 1016.1
28 20:53 S 8 G 23 10.00 Fair CLR 78.1 68 71% 80 30.05 1015.8
28 19:53 SE 6 10.00 Fair CLR 82 73 74% 87 30.02 1014.9
28 18:53 Calm 10.00 Fair CLR 82.9 71.1 95 78.1 67% 88 30 1014.1
28 17:53 NE 3 10.00 Fair CLR 80.1 73 79% 84 30.01 1014.4
28 16:53 N 21 G 31 5.00 Thunderstorm Heavy Rain and Breezy FEW044 SCT055 SCT070 84 71.1 65% 89 30.03 1014.9
28 15:53 SW 12 10.00 Thunderstorm FEW060 87.1 69.1 55% 91 30.03 1014.9
28 14:53 Calm 10.00 A Few Clouds FEW065 93 68 44% 97 30.06 1015.7
28 13:53 Vrbl 6 10.00 A Few Clouds FEW055 93.9 68 43% 98 30.08 1016.5
28 12:53 Vrbl 3 10.00 Fair CLR 91 68 91.9 73 47% 95 30.1 1017.2
28 11:53 Calm 10.00 Fair CLR 89.1 68 50% 93 30.12 1018.0
28 10:53 Calm 10.00 Fair CLR 84.9 69.1 59% 89 30.12 1018.0
28 09:53 Calm 10.00 Fair CLR 82 70 67% 86 30.11 1017.8
28 08:53 Calm 10.00 Fair CLR 78.1 71.1 79% 80 30.1 1017.6
28 07:53 Calm 10.00 Fair CLR 75 70 84% 75 30.1 1017.2
28 06:53 Calm 8.00 Fair CLR 73 71.1 77 73 94% 30.08 1016.6
28 05:53 SW 3 8.00 Fair CLR 73 71.1 94% 30.06 1016.1
28 04:53 S 6 10.00 Fair CLR 73.9 71.1 91% 30.06 1015.7
28 03:53 N 5 10.00 Fair CLR 75 69.1 82% 75 30.03 1014.9
28 02:53 NE 6 10.00 Fair CLR 75.9 69.1 79% 77 30.03 1014.8
Date Time (cdt) Wind (mph) Vis. (mi.) Weather Sky Cond. Air Dwpt Max. Min. Relative Humidity Wind Chill (°F) Heat Index (°F) altimeter (in) sea level (mb) 1 hr 3 hr 6 hr
6 hour
Temperature (ºF) Pressure Precipitation (in)